TAF and METAR

Decoding for American and Canadian METARs and TAFs is not fully implemented.

Could not understand the following METAR

K20V 020255Z AUTO 00000KT 10SM BKN090 OVC120 M06/M09 A3024 RMK AO2
No TAF available for Kremmling Awos
Kremmling Awos in United States of America at 2259m

Latest 5 airports